sensor_id;sensor_type;location;lat;lon;timestamp;temperature;humidity
19403;DHT22;9837;48.888;8.998;2023-07-20T00:00:39;24.60;42.50
19403;DHT22;9837;48.888;8.998;2023-07-20T00:03:11;24.60;42.60
19403;DHT22;9837;48.888;8.998;2023-07-20T00:05:42;24.60;42.10
19403;DHT22;9837;48.888;8.998;2023-07-20T00:08:08;24.60;42.00
19403;DHT22;9837;48.888;8.998;2023-07-20T00:10:34;24.60;42.00
19403;DHT22;9837;48.888;8.998;2023-07-20T00:12:59;24.50;41.30
19403;DHT22;9837;48.888;8.998;2023-07-20T00:15:25;24.50;41.30
19403;DHT22;9837;48.888;8.998;2023-07-20T00:17:50;24.40;41.80
19403;DHT22;9837;48.888;8.998;2023-07-20T00:20:17;24.50;41.90
19403;DHT22;9837;48.888;8.998;2023-07-20T00:22:43;24.40;41.60
19403;DHT22;9837;48.888;8.998;2023-07-20T00:25:09;24.40;42.20
19403;DHT22;9837;48.888;8.998;2023-07-20T00:27:37;24.30;42.20
19403;DHT22;9837;48.888;8.998;2023-07-20T00:30:04;24.20;41.80
19403;DHT22;9837;48.888;8.998;2023-07-20T00:32:29;24.20;42.10
19403;DHT22;9837;48.888;8.998;2023-07-20T00:34:55;24.20;42.60
19403;DHT22;9837;48.888;8.998;2023-07-20T00:37:21;24.20;42.70
19403;DHT22;9837;48.888;8.998;2023-07-20T00:39:46;24.30;42.60
19403;DHT22;9837;48.888;8.998;2023-07-20T00:42:12;24.30;42.70
19403;DHT22;9837;48.888;8.998;2023-07-20T00:44:37;24.10;42.50
19403;DHT22;9837;48.888;8.998;2023-07-20T00:47:04;24.00;42.80
19403;DHT22;9837;48.888;8.998;2023-07-20T00:49:30;24.00;43.00
19403;DHT22;9837;48.888;8.998;2023-07-20T00:51:55;23.90;43.50
19403;DHT22;9837;48.888;8.998;2023-07-20T00:54:21;23.90;43.60
19403;DHT22;9837;48.888;8.998;2023-07-20T00:56:47;24.00;43.60
19403;DHT22;9837;48.888;8.998;2023-07-20T00:59:13;24.10;43.00
19403;DHT22;9837;48.888;8.998;2023-07-20T01:01:39;24.10;43.50
19403;DHT22;9837;48.888;8.998;2023-07-20T01:04:04;23.90;43.20
19403;DHT22;9837;48.888;8.998;2023-07-20T01:06:41;23.90;43.40
19403;DHT22;9837;48.888;8.998;2023-07-20T01:09:28;23.80;44.00
19403;DHT22;9837;48.888;8.998;2023-07-20T01:12:14;23.80;44.30
19403;DHT22;9837;48.888;8.998;2023-07-20T01:14:42;23.70;44.40
19403;DHT22;9837;48.888;8.998;2023-07-20T01:17:07;23.70;44.50
19403;DHT22;9837;48.888;8.998;2023-07-20T01:19:33;23.60;44.80
19403;DHT22;9837;48.888;8.998;2023-07-20T01:22:03;23.60;45.00
19403;DHT22;9837;48.888;8.998;2023-07-20T01:33:20;23.20;45.50
19403;DHT22;9837;48.888;8.998;2023-07-20T01:35:57;23.20;46.00
19403;DHT22;9837;48.888;8.998;2023-07-20T01:38:24;23.20;45.50
19403;DHT22;9837;48.888;8.998;2023-07-20T01:40:50;23.70;46.30
19403;DHT22;9837;48.888;8.998;2023-07-20T01:43:17;23.50;46.20
19403;DHT22;9837;48.888;8.998;2023-07-20T01:45:43;23.30;46.10
19403;DHT22;9837;48.888;8.998;2023-07-20T01:48:08;23.20;46.10
19403;DHT22;9837;48.888;8.998;2023-07-20T01:50:34;23.30;46.20
19403;DHT22;9837;48.888;8.998;2023-07-20T01:53:00;23.20;46.20
19403;DHT22;9837;48.888;8.998;2023-07-20T01:55:26;23.20;46.40
19403;DHT22;9837;48.888;8.998;2023-07-20T01:57:52;23.20;46.50
19403;DHT22;9837;48.888;8.998;2023-07-20T02:00:18;23.10;46.40
19403;DHT22;9837;48.888;8.998;2023-07-20T02:02:46;23.10;46.90
19403;DHT22;9837;48.888;8.998;2023-07-20T02:05:15;23.00;46.40
19403;DHT22;9837;48.888;8.998;2023-07-20T02:07:41;23.00;47.00
19403;DHT22;9837;48.888;8.998;2023-07-20T02:10:07;23.00;47.10
19403;DHT22;9837;48.888;8.998;2023-07-20T02:12:32;23.00;46.80
19403;DHT22;9837;48.888;8.998;2023-07-20T02:14:58;23.00;46.80
19403;DHT22;9837;48.888;8.998;2023-07-20T02:17:23;23.00;47.00
19403;DHT22;9837;48.888;8.998;2023-07-20T02:19:53;23.00;48.10
19403;DHT22;9837;48.888;8.998;2023-07-20T02:22:18;22.90;47.50
19403;DHT22;9837;48.888;8.998;2023-07-20T02:24:44;22.90;47.70
19403;DHT22;9837;48.888;8.998;2023-07-20T02:27:09;22.80;48.00
19403;DHT22;9837;48.888;8.998;2023-07-20T02:29:35;22.80;48.20
19403;DHT22;9837;48.888;8.998;2023-07-20T02:32:01;22.80;47.90
19403;DHT22;9837;48.888;8.998;2023-07-20T02:34:27;22.80;47.50
19403;DHT22;9837;48.888;8.998;2023-07-20T02:36:53;22.80;48.00
19403;DHT22;9837;48.888;8.998;2023-07-20T02:39:21;22.80;47.90
19403;DHT22;9837;48.888;8.998;2023-07-20T02:41:47;22.70;47.50
19403;DHT22;9837;48.888;8.998;2023-07-20T02:44:14;22.70;48.10
19403;DHT22;9837;48.888;8.998;2023-07-20T02:46:39;22.70;48.20
19403;DHT22;9837;48.888;8.998;2023-07-20T02:49:05;22.70;48.20
19403;DHT22;9837;48.888;8.998;2023-07-20T02:51:30;22.60;48.10
19403;DHT22;9837;48.888;8.998;2023-07-20T02:53:56;22.70;47.80
19403;DHT22;9837;48.888;8.998;2023-07-20T02:56:22;22.60;48.30
19403;DHT22;9837;48.888;8.998;2023-07-20T02:58:48;22.60;48.00
19403;DHT22;9837;48.888;8.998;2023-07-20T03:01:14;22.50;48.50
19403;DHT22;9837;48.888;8.998;2023-07-20T03:03:41;22.50;48.60
19403;DHT22;9837;48.888;8.998;2023-07-20T03:06:11;22.50;48.80
19403;DHT22;9837;48.888;8.998;2023-07-20T03:08:36;22.40;48.50
19403;DHT22;9837;48.888;8.998;2023-07-20T03:11:02;22.40;49.10
19403;DHT22;9837;48.888;8.998;2023-07-20T03:13:28;22.40;48.90
19403;DHT22;9837;48.888;8.998;2023-07-20T03:15:53;22.30;48.90
19403;DHT22;9837;48.888;8.998;2023-07-20T03:18:19;22.30;49.00
19403;DHT22;9837;48.888;8.998;2023-07-20T03:20:45;22.20;49.20
19403;DHT22;9837;48.888;8.998;2023-07-20T03:23:11;22.20;49.50
19403;DHT22;9837;48.888;8.998;2023-07-20T03:25:37;22.20;49.30
19403;DHT22;9837;48.888;8.998;2023-07-20T03:28:04;22.20;48.90
19403;DHT22;9837;48.888;8.998;2023-07-20T03:30:29;22.20;49.10
19403;DHT22;9837;48.888;8.998;2023-07-20T03:32:55;22.20;49.60
19403;DHT22;9837;48.888;8.998;2023-07-20T03:35:20;22.20;49.70
19403;DHT22;9837;48.888;8.998;2023-07-20T03:37:46;22.10;49.70
19403;DHT22;9837;48.888;8.998;2023-07-20T03:40:11;22.10;49.30
19403;DHT22;9837;48.888;8.998;2023-07-20T03:42:37;22.10;49.30
19403;DHT22;9837;48.888;8.998;2023-07-20T03:45:04;22.10;49.80
19403;DHT22;9837;48.888;8.998;2023-07-20T03:47:30;22.10;49.80
19403;DHT22;9837;48.888;8.998;2023-07-20T03:49:55;22.10;49.30
19403;DHT22;9837;48.888;8.998;2023-07-20T03:52:21;22.20;49.90
19403;DHT22;9837;48.888;8.998;2023-07-20T03:54:46;22.20;49.70
19403;DHT22;9837;48.888;8.998;2023-07-20T03:57:12;22.20;49.80
19403;DHT22;9837;48.888;8.998;2023-07-20T03:59:39;22.20;49.70
19403;DHT22;9837;48.888;8.998;2023-07-20T04:02:05;22.30;49.10
19403;DHT22;9837;48.888;8.998;2023-07-20T04:04:31;22.30;49.60
19403;DHT22;9837;48.888;8.998;2023-07-20T04:06:57;22.40;49.60
19403;DHT22;9837;48.888;8.998;2023-07-20T04:09:22;22.40;49.50
19403;DHT22;9837;48.888;8.998;2023-07-20T04:11:48;22.50;49.20
19403;DHT22;9837;48.888;8.998;2023-07-20T04:14:13;22.50;49.10
19403;DHT22;9837;48.888;8.998;2023-07-20T04:16:39;22.60;48.50
19403;DHT22;9837;48.888;8.998;2023-07-20T04:19:04;22.60;48.50
19403;DHT22;9837;48.888;8.998;2023-07-20T04:21:30;22.70;48.40
19403;DHT22;9837;48.888;8.998;2023-07-20T04:23:55;22.60;48.90
19403;DHT22;9837;48.888;8.998;2023-07-20T04:26:21;22.70;49.10
19403;DHT22;9837;48.888;8.998;2023-07-20T04:31:14;22.80;48.50
19403;DHT22;9837;48.888;8.998;2023-07-20T04:33:40;23.00;48.10
19403;DHT22;9837;48.888;8.998;2023-07-20T04:36:05;23.00;48.70
19403;DHT22;9837;48.888;8.998;2023-07-20T04:38:31;23.20;48.40
19403;DHT22;9837;48.888;8.998;2023-07-20T04:40:57;23.30;48.00
19403;DHT22;9837;48.888;8.998;2023-07-20T04:43:22;23.40;48.00
19403;DHT22;9837;48.888;8.998;2023-07-20T04:45:48;23.50;47.60
19403;DHT22;9837;48.888;8.998;2023-07-20T04:48:15;23.40;48.10
19403;DHT22;9837;48.888;8.998;2023-07-20T04:50:41;23.50;48.00
19403;DHT22;9837;48.888;8.998;2023-07-20T04:53:08;23.60;48.20
19403;DHT22;9837;48.888;8.998;2023-07-20T04:55:35;24.30;47.30
19403;DHT22;9837;48.888;8.998;2023-07-20T04:58:02;25.70;45.60
19403;DHT22;9837;48.888;8.998;2023-07-20T05:00:35;27.40;42.10
19403;DHT22;9837;48.888;8.998;2023-07-20T05:03:00;28.90;39.40
19403;DHT22;9837;48.888;8.998;2023-07-20T05:05:26;30.80;35.30
19403;DHT22;9837;48.888;8.998;2023-07-20T05:07:52;30.70;35.70
19403;DHT22;9837;48.888;8.998;2023-07-20T05:10:17;31.00;34.60
19403;DHT22;9837;48.888;8.998;2023-07-20T05:12:43;30.80;34.50
19403;DHT22;9837;48.888;8.998;2023-07-20T05:15:09;30.80;35.00
19403;DHT22;9837;48.888;8.998;2023-07-20T05:17:35;30.20;35.80
19403;DHT22;9837;48.888;8.998;2023-07-20T05:20:00;29.80;36.40
19403;DHT22;9837;48.888;8.998;2023-07-20T05:22:26;29.10;37.20
19403;DHT22;9837;48.888;8.998;2023-07-20T05:24:51;29.10;37.70
19403;DHT22;9837;48.888;8.998;2023-07-20T05:27:17;29.00;37.80
19403;DHT22;9837;48.888;8.998;2023-07-20T05:29:46;29.10;38.40
19403;DHT22;9837;48.888;8.998;2023-07-20T05:32:13;29.20;38.10
19403;DHT22;9837;48.888;8.998;2023-07-20T05:34:39;29.90;37.80
19403;DHT22;9837;48.888;8.998;2023-07-20T05:37:05;31.30;35.70
19403;DHT22;9837;48.888;8.998;2023-07-20T05:39:32;32.60;33.70
19403;DHT22;9837;48.888;8.998;2023-07-20T05:41:58;34.60;30.80
19403;DHT22;9837;48.888;8.998;2023-07-20T05:44:24;35.50;29.60
19403;DHT22;9837;48.888;8.998;2023-07-20T05:46:49;35.60;28.90
19403;DHT22;9837;48.888;8.998;2023-07-20T05:49:15;35.90;28.90
19403;DHT22;9837;48.888;8.998;2023-07-20T05:51:40;36.00;28.50
19403;DHT22;9837;48.888;8.998;2023-07-20T05:54:06;36.00;29.00
19403;DHT22;9837;48.888;8.998;2023-07-20T05:56:31;36.30;28.50
19403;DHT22;9837;48.888;8.998;2023-07-20T05:58:57;36.10;28.20
19403;DHT22;9837;48.888;8.998;2023-07-20T06:01:22;36.40;28.40
19403;DHT22;9837;48.888;8.998;2023-07-20T06:03:48;36.50;28.50
19403;DHT22;9837;48.888;8.998;2023-07-20T06:06:14;36.50;28.20
19403;DHT22;9837;48.888;8.998;2023-07-20T06:08:40;36.50;27.80
19403;DHT22;9837;48.888;8.998;2023-07-20T06:11:06;36.50;27.70
19403;DHT22;9837;48.888;8.998;2023-07-20T06:13:31;36.60;27.50
19403;DHT22;9837;48.888;8.998;2023-07-20T06:18:23;37.30;27.10
19403;DHT22;9837;48.888;8.998;2023-07-20T06:20:52;37.80;26.80
19403;DHT22;9837;48.888;8.998;2023-07-20T06:23:20;38.40;26.40
19403;DHT22;9837;48.888;8.998;2023-07-20T06:25:46;38.80;26.00
19403;DHT22;9837;48.888;8.998;2023-07-20T06:28:13;38.50;25.90
19403;DHT22;9837;48.888;8.998;2023-07-20T06:30:39;38.20;25.90
19403;DHT22;9837;48.888;8.998;2023-07-20T06:33:05;36.70;27.30
19403;DHT22;9837;48.888;8.998;2023-07-20T06:35:31;35.70;28.60
19403;DHT22;9837;48.888;8.998;2023-07-20T06:37:56;35.60;28.70
19403;DHT22;9837;48.888;8.998;2023-07-20T06:40:22;35.50;28.60
19403;DHT22;9837;48.888;8.998;2023-07-20T06:42:48;35.30;28.90
19403;DHT22;9837;48.888;8.998;2023-07-20T06:45:14;35.10;28.90
19403;DHT22;9837;48.888;8.998;2023-07-20T06:47:40;34.90;29.20
19403;DHT22;9837;48.888;8.998;2023-07-20T06:50:09;34.80;29.70
19403;DHT22;9837;48.888;8.998;2023-07-20T06:52:36;34.40;30.00
19403;DHT22;9837;48.888;8.998;2023-07-20T06:55:01;34.00;30.50
19403;DHT22;9837;48.888;8.998;2023-07-20T06:57:27;33.90;31.10
19403;DHT22;9837;48.888;8.998;2023-07-20T06:59:53;33.50;31.50
19403;DHT22;9837;48.888;8.998;2023-07-20T07:02:19;32.80;32.40
19403;DHT22;9837;48.888;8.998;2023-07-20T07:04:44;32.40;32.80
19403;DHT22;9837;48.888;8.998;2023-07-20T07:07:15;32.10;33.10
19403;DHT22;9837;48.888;8.998;2023-07-20T07:09:41;32.00;33.10
19403;DHT22;9837;48.888;8.998;2023-07-20T07:12:07;32.10;33.20
19403;DHT22;9837;48.888;8.998;2023-07-20T07:14:33;31.80;33.50
19403;DHT22;9837;48.888;8.998;2023-07-20T07:16:58;31.30;34.00
19403;DHT22;9837;48.888;8.998;2023-07-20T07:19:24;30.50;35.30
19403;DHT22;9837;48.888;8.998;2023-07-20T07:21:50;30.50;36.10
19403;DHT22;9837;48.888;8.998;2023-07-20T07:24:16;29.50;37.50
19403;DHT22;9837;48.888;8.998;2023-07-20T07:26:42;29.50;38.00
19403;DHT22;9837;48.888;8.998;2023-07-20T07:29:07;29.40;37.80
19403;DHT22;9837;48.888;8.998;2023-07-20T07:31:34;29.60;37.30
19403;DHT22;9837;48.888;8.998;2023-07-20T07:34:01;29.60;37.20
19403;DHT22;9837;48.888;8.998;2023-07-20T07:38:53;30.80;35.20
19403;DHT22;9837;48.888;8.998;2023-07-20T07:41:19;31.30;35.10
19403;DHT22;9837;48.888;8.998;2023-07-20T07:43:44;31.80;34.20
19403;DHT22;9837;48.888;8.998;2023-07-20T07:46:10;32.00;32.80
19403;DHT22;9837;48.888;8.998;2023-07-20T07:48:36;32.00;34.00
19403;DHT22;9837;48.888;8.998;2023-07-20T07:51:01;31.90;33.40
19403;DHT22;9837;48.888;8.998;2023-07-20T07:53:27;31.30;34.50
19403;DHT22;9837;48.888;8.998;2023-07-20T07:55:52;31.40;34.00
19403;DHT22;9837;48.888;8.998;2023-07-20T07:58:18;31.40;33.20
19403;DHT22;9837;48.888;8.998;2023-07-20T08:00:43;31.40;33.80
19403;DHT22;9837;48.888;8.998;2023-07-20T08:03:10;31.40;34.40
19403;DHT22;9837;48.888;8.998;2023-07-20T08:05:36;31.30;34.00
19403;DHT22;9837;48.888;8.998;2023-07-20T08:08:02;30.70;33.30
19403;DHT22;9837;48.888;8.998;2023-07-20T08:10:29;30.10;34.00
19403;DHT22;9837;48.888;8.998;2023-07-20T08:12:55;30.00;34.50
19403;DHT22;9837;48.888;8.998;2023-07-20T08:15:21;29.30;36.20
19403;DHT22;9837;48.888;8.998;2023-07-20T08:17:46;29.30;36.90
19403;DHT22;9837;48.888;8.998;2023-07-20T08:22:40;29.50;36.30
19403;DHT22;9837;48.888;8.998;2023-07-20T08:25:06;29.70;36.10
19403;DHT22;9837;48.888;8.998;2023-07-20T08:27:32;29.70;36.70
19403;DHT22;9837;48.888;8.998;2023-07-20T08:29:57;29.50;36.80
19403;DHT22;9837;48.888;8.998;2023-07-20T08:32:23;29.40;37.10
19403;DHT22;9837;48.888;8.998;2023-07-20T08:34:49;29.40;36.80
19403;DHT22;9837;48.888;8.998;2023-07-20T08:37:14;29.60;36.10
19403;DHT22;9837;48.888;8.998;2023-07-20T08:39:40;29.60;36.70
19403;DHT22;9837;48.888;8.998;2023-07-20T08:42:06;29.60;36.60
19403;DHT22;9837;48.888;8.998;2023-07-20T08:44:33;29.40;35.80
19403;DHT22;9837;48.888;8.998;2023-07-20T08:47:00;29.10;37.00
19403;DHT22;9837;48.888;8.998;2023-07-20T08:49:28;29.50;36.70
19403;DHT22;9837;48.888;8.998;2023-07-20T08:51:54;29.70;35.90
19403;DHT22;9837;48.888;8.998;2023-07-20T08:54:20;29.30;36.00
19403;DHT22;9837;48.888;8.998;2023-07-20T08:56:45;29.20;36.50
19403;DHT22;9837;48.888;8.998;2023-07-20T08:59:13;29.00;36.90
19403;DHT22;9837;48.888;8.998;2023-07-20T09:01:41;29.00;37.40
19403;DHT22;9837;48.888;8.998;2023-07-20T09:04:08;29.30;36.70
19403;DHT22;9837;48.888;8.998;2023-07-20T09:06:35;29.50;36.10
19403;DHT22;9837;48.888;8.998;2023-07-20T09:09:00;29.30;35.20
19403;DHT22;9837;48.888;8.998;2023-07-20T09:11:26;29.70;36.00
19403;DHT22;9837;48.888;8.998;2023-07-20T09:14:09;29.60;35.80
19403;DHT22;9837;48.888;8.998;2023-07-20T09:16:54;29.30;33.90
19403;DHT22;9837;48.888;8.998;2023-07-20T09:19:20;29.70;33.60
19403;DHT22;9837;48.888;8.998;2023-07-20T09:21:48;29.40;32.50
19403;DHT22;9837;48.888;8.998;2023-07-20T09:24:14;29.30;33.20
19403;DHT22;9837;48.888;8.998;2023-07-20T09:26:42;28.00;34.60
19403;DHT22;9837;48.888;8.998;2023-07-20T09:29:08;28.10;34.00
19403;DHT22;9837;48.888;8.998;2023-07-20T09:31:38;27.80;34.40
19403;DHT22;9837;48.888;8.998;2023-07-20T09:34:06;28.10;34.50
19403;DHT22;9837;48.888;8.998;2023-07-20T09:36:36;28.60;33.80
19403;DHT22;9837;48.888;8.998;2023-07-20T09:39:03;29.20;32.90
19403;DHT22;9837;48.888;8.998;2023-07-20T09:41:30;29.20;33.50
19403;DHT22;9837;48.888;8.998;2023-07-20T09:43:55;29.80;33.50
19403;DHT22;9837;48.888;8.998;2023-07-20T09:46:22;30.10;32.90
19403;DHT22;9837;48.888;8.998;2023-07-20T09:48:52;30.10;33.50
19403;DHT22;9837;48.888;8.998;2023-07-20T09:51:24;30.40;32.20
19403;DHT22;9837;48.888;8.998;2023-07-20T09:53:52;30.50;32.60
19403;DHT22;9837;48.888;8.998;2023-07-20T09:56:21;30.60;31.50
19403;DHT22;9837;48.888;8.998;2023-07-20T09:58:48;30.60;31.60
19403;DHT22;9837;48.888;8.998;2023-07-20T10:01:18;30.70;30.10
19403;DHT22;9837;48.888;8.998;2023-07-20T10:03:46;31.00;30.90
19403;DHT22;9837;48.888;8.998;2023-07-20T10:06:15;31.20;31.80
19403;DHT22;9837;48.888;8.998;2023-07-20T10:08:47;31.20;31.30
19403;DHT22;9837;48.888;8.998;2023-07-20T10:11:15;30.60;30.00
19403;DHT22;9837;48.888;8.998;2023-07-20T10:13:43;30.40;30.80
19403;DHT22;9837;48.888;8.998;2023-07-20T10:16:22;30.20;30.40
19403;DHT22;9837;48.888;8.998;2023-07-20T10:18:55;30.00;30.80
19403;DHT22;9837;48.888;8.998;2023-07-20T10:21:24;30.00;31.40
19403;DHT22;9837;48.888;8.998;2023-07-20T10:23:51;30.40;31.60
19403;DHT22;9837;48.888;8.998;2023-07-20T10:26:16;30.60;32.10
19403;DHT22;9837;48.888;8.998;2023-07-20T10:28:42;30.40;30.80
19403;DHT22;9837;48.888;8.998;2023-07-20T10:31:09;30.40;31.20
19403;DHT22;9837;48.888;8.998;2023-07-20T10:33:37;29.80;31.80
19403;DHT22;9837;48.888;8.998;2023-07-20T10:36:04;29.80;32.50
19403;DHT22;9837;48.888;8.998;2023-07-20T10:38:40;29.30;30.20
19403;DHT22;9837;48.888;8.998;2023-07-20T10:41:19;29.20;30.80
19403;DHT22;9837;48.888;8.998;2023-07-20T10:43:46;29.20;30.70
19403;DHT22;9837;48.888;8.998;2023-07-20T10:46:12;29.10;32.10
19403;DHT22;9837;48.888;8.998;2023-07-20T10:49:00;29.40;32.20
19403;DHT22;9837;48.888;8.998;2023-07-20T10:51:28;29.70;32.30
19403;DHT22;9837;48.888;8.998;2023-07-20T10:53:58;29.60;31.40
19403;DHT22;9837;48.888;8.998;2023-07-20T10:56:26;29.90;29.30
19403;DHT22;9837;48.888;8.998;2023-07-20T10:58:58;30.30;29.00
19403;DHT22;9837;48.888;8.998;2023-07-20T11:01:35;30.70;28.80
19403;DHT22;9837;48.888;8.998;2023-07-20T11:04:02;30.90;28.00
19403;DHT22;9837;48.888;8.998;2023-07-20T11:06:33;30.90;28.40
19403;DHT22;9837;48.888;8.998;2023-07-20T11:11:30;31.10;28.10
19403;DHT22;9837;48.888;8.998;2023-07-20T11:14:05;31.20;29.60
19403;DHT22;9837;48.888;8.998;2023-07-20T11:16:39;31.50;29.70
19403;DHT22;9837;48.888;8.998;2023-07-20T11:19:06;31.50;28.40
19403;DHT22;9837;48.888;8.998;2023-07-20T11:21:37;31.20;28.00
19403;DHT22;9837;48.888;8.998;2023-07-20T11:24:04;31.10;28.40
19403;DHT22;9837;48.888;8.998;2023-07-20T11:26:30;30.80;28.80
19403;DHT22;9837;48.888;8.998;2023-07-20T11:29:04;30.70;29.00
19403;DHT22;9837;48.888;8.998;2023-07-20T11:33:55;31.10;28.40
19403;DHT22;9837;48.888;8.998;2023-07-20T11:36:21;31.10;28.80
19403;DHT22;9837;48.888;8.998;2023-07-20T11:38:47;31.60;29.10
19403;DHT22;9837;48.888;8.998;2023-07-20T11:41:13;31.70;29.50
19403;DHT22;9837;48.888;8.998;2023-07-20T11:43:39;31.70;29.90
19403;DHT22;9837;48.888;8.998;2023-07-20T11:46:06;31.70;29.60
19403;DHT22;9837;48.888;8.998;2023-07-20T11:48:31;31.60;29.50
19403;DHT22;9837;48.888;8.998;2023-07-20T11:50:57;31.50;29.90
19403;DHT22;9837;48.888;8.998;2023-07-20T11:53:24;31.80;28.20
19403;DHT22;9837;48.888;8.998;2023-07-20T11:55:51;31.90;28.00
19403;DHT22;9837;48.888;8.998;2023-07-20T11:58:17;32.30;26.60
19403;DHT22;9837;48.888;8.998;2023-07-20T12:00:44;32.20;26.30
19403;DHT22;9837;48.888;8.998;2023-07-20T12:03:10;32.30;26.60
19403;DHT22;9837;48.888;8.998;2023-07-20T12:05:38;32.60;25.70
19403;DHT22;9837;48.888;8.998;2023-07-20T12:08:04;32.80;25.70
19403;DHT22;9837;48.888;8.998;2023-07-20T12:10:30;32.30;26.00
19403;DHT22;9837;48.888;8.998;2023-07-20T12:13:01;31.70;27.70
19403;DHT22;9837;48.888;8.998;2023-07-20T12:15:30;31.80;27.70
19403;DHT22;9837;48.888;8.998;2023-07-20T12:17:58;31.90;26.40
19403;DHT22;9837;48.888;8.998;2023-07-20T12:20:36;31.80;26.30
19403;DHT22;9837;48.888;8.998;2023-07-20T12:23:10;31.80;27.10
19403;DHT22;9837;48.888;8.998;2023-07-20T12:25:46;31.80;26.90
19403;DHT22;9837;48.888;8.998;2023-07-20T12:28:17;31.80;27.30
19403;DHT22;9837;48.888;8.998;2023-07-20T12:30:44;32.00;26.90
19403;DHT22;9837;48.888;8.998;2023-07-20T12:33:10;32.10;27.40
19403;DHT22;9837;48.888;8.998;2023-07-20T12:35:37;32.10;26.90
19403;DHT22;9837;48.888;8.998;2023-07-20T12:38:02;32.30;27.20
19403;DHT22;9837;48.888;8.998;2023-07-20T12:42:55;32.40;27.20
19403;DHT22;9837;48.888;8.998;2023-07-20T12:45:20;32.70;26.20
19403;DHT22;9837;48.888;8.998;2023-07-20T12:47:47;32.80;26.40
19403;DHT22;9837;48.888;8.998;2023-07-20T12:50:13;33.00;26.10
19403;DHT22;9837;48.888;8.998;2023-07-20T12:52:40;32.80;26.70
19403;DHT22;9837;48.888;8.998;2023-07-20T12:55:06;32.80;26.20
19403;DHT22;9837;48.888;8.998;2023-07-20T12:57:34;32.90;26.00
19403;DHT22;9837;48.888;8.998;2023-07-20T13:00:00;33.00;25.70
19403;DHT22;9837;48.888;8.998;2023-07-20T13:04:52;32.90;25.20
19403;DHT22;9837;48.888;8.998;2023-07-20T13:07:29;32.80;25.00
19403;DHT22;9837;48.888;8.998;2023-07-20T13:09:56;32.60;25.80
19403;DHT22;9837;48.888;8.998;2023-07-20T13:14:47;32.40;25.50
19403;DHT22;9837;48.888;8.998;2023-07-20T13:17:13;32.30;25.60
19403;DHT22;9837;48.888;8.998;2023-07-20T13:19:38;32.40;25.90
19403;DHT22;9837;48.888;8.998;2023-07-20T13:22:04;32.70;24.80
19403;DHT22;9837;48.888;8.998;2023-07-20T13:24:30;32.30;24.60
19403;DHT22;9837;48.888;8.998;2023-07-20T13:29:21;32.40;25.10
19403;DHT22;9837;48.888;8.998;2023-07-20T13:31:47;32.10;26.10
19403;DHT22;9837;48.888;8.998;2023-07-20T13:34:12;32.10;26.00
19403;DHT22;9837;48.888;8.998;2023-07-20T13:36:38;32.00;25.30
19403;DHT22;9837;48.888;8.998;2023-07-20T13:41:30;32.20;24.60
19403;DHT22;9837;48.888;8.998;2023-07-20T13:43:57;32.10;24.80
19403;DHT22;9837;48.888;8.998;2023-07-20T13:46:23;31.80;24.60
19403;DHT22;9837;48.888;8.998;2023-07-20T13:48:49;31.90;24.80
19403;DHT22;9837;48.888;8.998;2023-07-20T13:51:14;31.80;25.00
19403;DHT22;9837;48.888;8.998;2023-07-20T13:53:40;32.00;24.60
19403;DHT22;9837;48.888;8.998;2023-07-20T13:56:06;32.20;24.70
19403;DHT22;9837;48.888;8.998;2023-07-20T13:58:32;32.30;24.50
19403;DHT22;9837;48.888;8.998;2023-07-20T14:00:58;32.10;25.10
19403;DHT22;9837;48.888;8.998;2023-07-20T14:03:24;32.00;25.40
19403;DHT22;9837;48.888;8.998;2023-07-20T14:05:50;32.20;25.80
19403;DHT22;9837;48.888;8.998;2023-07-20T14:08:15;32.40;24.90
19403;DHT22;9837;48.888;8.998;2023-07-20T14:13:07;32.80;24.50
19403;DHT22;9837;48.888;8.998;2023-07-20T14:15:34;32.80;24.00
19403;DHT22;9837;48.888;8.998;2023-07-20T14:18:00;32.70;24.40
19403;DHT22;9837;48.888;8.998;2023-07-20T14:22:52;32.70;24.30
19403;DHT22;9837;48.888;8.998;2023-07-20T14:25:17;32.70;24.90
19403;DHT22;9837;48.888;8.998;2023-07-20T14:27:43;33.00;24.20
19403;DHT22;9837;48.888;8.998;2023-07-20T14:30:09;33.20;24.20
19403;DHT22;9837;48.888;8.998;2023-07-20T14:32:35;33.20;23.80
19403;DHT22;9837;48.888;8.998;2023-07-20T14:35:00;33.10;23.70
19403;DHT22;9837;48.888;8.998;2023-07-20T14:37:26;33.00;24.20
19403;DHT22;9837;48.888;8.998;2023-07-20T14:39:51;32.90;24.00
19403;DHT22;9837;48.888;8.998;2023-07-20T14:42:18;32.90;24.40
19403;DHT22;9837;48.888;8.998;2023-07-20T14:44:44;32.80;24.10
19403;DHT22;9837;48.888;8.998;2023-07-20T14:47:09;32.90;24.40
19403;DHT22;9837;48.888;8.998;2023-07-20T14:49:35;32.60;23.80
19403;DHT22;9837;48.888;8.998;2023-07-20T14:52:01;32.40;25.00
19403;DHT22;9837;48.888;8.998;2023-07-20T14:54:27;32.20;24.70
19403;DHT22;9837;48.888;8.998;2023-07-20T14:56:53;31.90;24.90
19403;DHT22;9837;48.888;8.998;2023-07-20T14:59:19;31.80;24.40
19403;DHT22;9837;48.888;8.998;2023-07-20T15:01:45;32.00;25.20
19403;DHT22;9837;48.888;8.998;2023-07-20T15:04:16;32.30;25.50
19403;DHT22;9837;48.888;8.998;2023-07-20T15:06:42;32.20;25.40
19403;DHT22;9837;48.888;8.998;2023-07-20T15:09:08;32.10;25.70
19403;DHT22;9837;48.888;8.998;2023-07-20T15:11:35;31.80;24.20
19403;DHT22;9837;48.888;8.998;2023-07-20T15:14:01;31.40;24.70
19403;DHT22;9837;48.888;8.998;2023-07-20T15:16:26;31.40;26.00
19403;DHT22;9837;48.888;8.998;2023-07-20T15:18:52;31.50;25.10
19403;DHT22;9837;48.888;8.998;2023-07-20T15:21:18;31.50;25.10
19403;DHT22;9837;48.888;8.998;2023-07-20T15:23:44;31.70;25.50
19403;DHT22;9837;48.888;8.998;2023-07-20T15:26:09;31.80;25.10
19403;DHT22;9837;48.888;8.998;2023-07-20T15:28:37;31.90;25.00
19403;DHT22;9837;48.888;8.998;2023-07-20T15:31:04;31.80;24.30
19403;DHT22;9837;48.888;8.998;2023-07-20T15:33:30;31.70;25.00
19403;DHT22;9837;48.888;8.998;2023-07-20T15:35:57;31.70;24.60
19403;DHT22;9837;48.888;8.998;2023-07-20T15:38:22;31.70;24.10
19403;DHT22;9837;48.888;8.998;2023-07-20T15:40:48;31.60;24.50
19403;DHT22;9837;48.888;8.998;2023-07-20T15:43:16;31.80;23.50
19403;DHT22;9837;48.888;8.998;2023-07-20T15:45:46;31.70;24.00
19403;DHT22;9837;48.888;8.998;2023-07-20T15:48:14;31.50;24.40
19403;DHT22;9837;48.888;8.998;2023-07-20T15:50:39;30.90;25.40
19403;DHT22;9837;48.888;8.998;2023-07-20T15:53:05;30.80;25.30
19403;DHT22;9837;48.888;8.998;2023-07-20T15:55:31;30.80;25.50
19403;DHT22;9837;48.888;8.998;2023-07-20T15:57:56;31.00;25.20
19403;DHT22;9837;48.888;8.998;2023-07-20T16:00:22;31.00;25.50
19403;DHT22;9837;48.888;8.998;2023-07-20T16:02:47;31.00;25.20
19403;DHT22;9837;48.888;8.998;2023-07-20T16:05:13;31.00;25.30
19403;DHT22;9837;48.888;8.998;2023-07-20T16:07:38;30.60;24.90
19403;DHT22;9837;48.888;8.998;2023-07-20T16:10:04;30.60;25.70
19403;DHT22;9837;48.888;8.998;2023-07-20T16:12:33;30.60;25.50
19403;DHT22;9837;48.888;8.998;2023-07-20T16:14:59;30.60;25.70
19403;DHT22;9837;48.888;8.998;2023-07-20T16:17:24;30.70;25.80
19403;DHT22;9837;48.888;8.998;2023-07-20T16:19:51;30.80;25.80
19403;DHT22;9837;48.888;8.998;2023-07-20T16:22:16;30.80;26.20